createdAt,value
2018-05-06T00:00:56.798Z,98603.38
2018-05-06T00:03:25.693Z,98605.45
2018-05-06T00:05:54.905Z,98605.04
2018-05-06T00:08:24.070Z,98611.19
2018-05-06T00:10:53.767Z,98608.42
2018-05-06T00:13:23.272Z,98617.47
2018-05-06T00:15:52.348Z,98619.70
2018-05-06T00:18:21.398Z,98629.58
2018-05-06T00:20:51.248Z,98630.28
2018-05-06T00:23:20.415Z,98632.03
2018-05-06T00:25:49.459Z,98638.53
2018-05-06T00:28:19.477Z,98638.85
2018-05-06T00:30:49.036Z,98645.92
2018-05-06T00:33:19.771Z,98651.73
2018-05-06T00:35:49.068Z,98659.26
2018-05-06T00:38:18.414Z,98662.59
2018-05-06T00:40:48.060Z,98664.38
2018-05-06T00:43:17.600Z,98667.66
2018-05-06T00:45:47.461Z,98674.07
2018-05-06T00:48:16.743Z,98674.77
2018-05-06T00:50:46.116Z,98682.48
2018-05-06T00:53:15.312Z,98687.61
2018-05-06T00:55:44.725Z,98691.31
2018-05-06T00:58:14.553Z,98693.57
2018-05-06T01:00:44.523Z,98694.08
2018-05-06T01:03:13.938Z,98703.07
2018-05-06T01:05:43.381Z,98700.45
2018-05-06T01:08:13.112Z,98704.55
2018-05-06T01:10:42.319Z,98701.45
2018-05-06T01:13:11.244Z,98705.84
2018-05-06T01:15:41.027Z,98706.25
2018-05-06T01:18:10.089Z,98712.53
2018-05-06T01:20:39.222Z,98719.05
2018-05-06T01:23:08.707Z,98723.16
2018-05-06T01:25:37.727Z,98734.42
2018-05-06T01:28:06.721Z,98737.91
2018-05-06T01:30:36.393Z,98738.99
2018-05-06T01:33:05.430Z,98739.27
2018-05-06T01:35:35.306Z,98740.99
2018-05-06T01:38:04.309Z,98744.41
2018-05-06T01:40:34.319Z,98743.77
2018-05-06T01:43:03.787Z,98745.28
2018-05-06T01:45:33.562Z,98740.67
2018-05-06T01:48:03.686Z,98743.67
2018-05-06T01:50:32.684Z,98752.39
2018-05-06T01:53:01.770Z,98749.80
2018-05-06T01:55:31.861Z,98753.17
2018-05-06T01:58:01.436Z,98752.36
2018-05-06T02:00:31.110Z,98753.22
2018-05-06T02:03:00.201Z,98758.50
2018-05-06T02:05:29.427Z,98756.91
2018-05-06T02:07:58.499Z,98754.00
2018-05-06T02:10:28.105Z,98756.04
2018-05-06T02:12:57.591Z,98762.00
2018-05-06T02:15:27.458Z,98753.74
2018-05-06T02:17:56.875Z,98759.20
2018-05-06T02:20:26.725Z,98749.55
2018-05-06T02:22:55.590Z,98754.72
2018-05-06T02:25:25.045Z,98758.55
2018-05-06T02:27:55.003Z,98753.86
2018-05-06T02:30:24.877Z,98758.20
2018-05-06T02:32:54.372Z,98761.20
2018-05-06T02:35:23.648Z,98768.92
2018-05-06T02:37:54.537Z,98768.92
2018-05-06T02:40:24.307Z,98769.02
2018-05-06T02:42:53.500Z,98778.02
2018-05-06T02:45:22.951Z,98769.89
2018-05-06T02:47:52.490Z,98773.30
2018-05-06T02:50:21.696Z,98779.78
2018-05-06T02:52:50.758Z,98786.38
2018-05-06T02:55:20.692Z,98789.06
2018-05-06T02:57:49.541Z,98789.11
2018-05-06T03:00:20.002Z,98792.42
2018-05-06T03:02:50.053Z,98794.59
2018-05-06T03:05:19.591Z,98804.17
2018-05-06T03:07:49.035Z,98810.30
2018-05-06T03:10:18.025Z,98812.02
2018-05-06T03:12:47.375Z,98812.66
2018-05-06T03:15:16.692Z,98814.37
2018-05-06T03:17:45.910Z,98808.91
2018-05-06T03:20:15.768Z,98810.25
2018-05-06T03:22:45.307Z,98816.44
2018-05-06T03:25:14.610Z,98821.85
2018-05-06T03:27:43.355Z,98821.44
2018-05-06T03:30:12.613Z,98821.95
2018-05-06T03:32:42.146Z,98819.13
2018-05-06T03:35:11.377Z,98822.45
2018-05-06T03:37:40.782Z,98827.58
2018-05-06T03:40:10.488Z,98822.92
2018-05-06T03:42:39.709Z,98827.91
2018-05-06T03:45:09.403Z,98832.38
2018-05-06T03:47:38.643Z,98833.95
2018-05-06T03:50:08.132Z,98833.66
2018-05-06T03:52:37.622Z,98839.81
2018-05-06T03:55:07.858Z,98836.76
2018-05-06T04:00:44.786Z,98849.70
2018-05-06T04:03:14.299Z,98848.36
2018-05-06T04:05:43.843Z,98847.16
2018-05-06T04:08:13.605Z,98849.09
2018-05-06T04:10:42.965Z,98843.33
2018-05-06T04:13:12.472Z,98848.17
2018-05-06T04:15:42.120Z,98850.16
2018-05-06T04:18:12.521Z,98854.59
2018-05-06T04:20:41.840Z,98845.31
2018-05-06T04:23:11.583Z,98858.42
2018-05-06T04:25:41.110Z,98857.89
2018-05-06T04:28:10.167Z,98855.75
2018-05-06T04:30:39.497Z,98856.36
2018-05-06T04:33:09.338Z,98845.46
2018-05-06T04:35:38.749Z,98853.95
2018-05-06T04:38:08.294Z,98856.41
2018-05-06T04:40:38.067Z,98854.00
2018-05-06T04:43:07.529Z,98858.27
2018-05-06T04:45:37.467Z,98856.47
2018-05-06T04:48:07.081Z,98854.72
2018-05-06T04:50:35.671Z,98853.61
2018-05-06T04:53:05.324Z,98851.34
2018-05-06T04:55:34.613Z,98848.48
2018-05-06T04:58:04.177Z,98855.08
2018-05-06T05:00:33.316Z,98862.21
2018-05-06T05:03:02.625Z,98856.06
2018-05-06T05:05:31.954Z,98852.59
2018-05-06T05:08:01.411Z,98856.11
2018-05-06T05:10:31.301Z,98850.23
2018-05-06T05:13:00.186Z,98843.03
2018-05-06T05:15:29.398Z,98850.28
2018-05-06T05:17:58.322Z,98844.79
2018-05-06T05:20:28.063Z,98843.67
2018-05-06T05:22:57.828Z,98846.77
2018-05-06T05:25:26.961Z,98843.87
2018-05-06T05:27:56.029Z,98841.09
2018-05-06T05:30:25.511Z,98842.66
2018-05-06T05:32:55.004Z,98836.78
2018-05-06T05:35:24.512Z,98835.86
2018-05-06T05:37:54.231Z,98838.92
2018-05-06T05:40:23.511Z,98837.80
2018-05-06T05:42:53.141Z,98838.36
2018-05-06T05:45:23.167Z,98831.59
2018-05-06T05:47:52.674Z,98840.56
2018-05-06T05:50:22.251Z,98833.95
2018-05-06T05:52:51.960Z,98829.75
2018-05-06T05:55:21.122Z,98825.72
2018-05-06T05:57:50.482Z,98818.38
2018-05-06T06:00:19.494Z,98819.92
2018-05-06T06:02:48.778Z,98816.11
2018-05-06T06:05:18.222Z,98814.52
2018-05-06T06:07:47.890Z,98813.73
2018-05-06T06:10:17.232Z,98802.91
2018-05-06T06:12:46.650Z,98807.99
2018-05-06T06:15:15.395Z,98798.89
2018-05-06T06:17:45.269Z,98799.31
2018-05-06T06:20:14.138Z,98799.21
2018-05-06T06:22:44.211Z,98794.91
2018-05-06T06:25:13.945Z,98795.22
2018-05-06T06:27:43.144Z,98793.75
2018-05-06T06:30:12.290Z,98797.08
2018-05-06T06:32:41.271Z,98790.08
2018-05-06T06:35:10.344Z,98788.23
2018-05-06T06:37:40.530Z,98789.06
2018-05-06T06:40:10.118Z,98792.57
2018-05-06T06:42:39.921Z,98778.66
2018-05-06T06:45:09.975Z,98786.70
2018-05-06T06:47:39.766Z,98773.41
2018-05-06T06:50:09.596Z,98773.51
2018-05-06T06:52:39.398Z,98773.73
2018-05-06T06:55:09.024Z,98761.27
2018-05-06T06:57:38.384Z,98760.03
2018-05-06T07:00:07.905Z,98759.92
2018-05-06T07:02:37.006Z,98748.38
2018-05-06T07:05:05.906Z,98749.72
2018-05-06T07:07:35.018Z,98739.02
2018-05-06T07:10:04.095Z,98740.25
2018-05-06T07:12:32.988Z,98734.39
2018-05-06T07:15:02.286Z,98719.81
2018-05-06T07:17:31.581Z,98729.59
2018-05-06T07:20:00.962Z,98711.78
2018-05-06T07:22:30.504Z,98707.80
2018-05-06T07:25:00.011Z,98701.25
2018-05-06T07:27:29.661Z,98699.84
2018-05-06T07:29:59.002Z,98701.70
2018-05-06T07:32:28.027Z,98687.08
2018-05-06T07:34:57.273Z,98687.52
2018-05-06T07:37:26.303Z,98683.69
2018-05-06T07:39:55.173Z,98673.81
2018-05-06T07:42:24.979Z,98677.23
2018-05-06T07:44:54.750Z,98677.32
2018-05-06T07:47:25.333Z,98667.33
2018-05-06T07:49:54.507Z,98667.77
2018-05-06T07:52:23.864Z,98659.81
2018-05-06T07:54:52.834Z,98653.33
2018-05-06T07:57:22.771Z,98643.63
2018-05-06T07:59:52.450Z,98640.42
2018-05-06T08:02:21.729Z,98634.55
2018-05-06T08:04:50.769Z,98634.44
2018-05-06T08:07:19.735Z,98627.64
2018-05-06T08:09:49.110Z,98621.26
2018-05-06T08:12:18.288Z,98620.75
2018-05-06T08:14:47.416Z,98622.16
2018-05-06T08:17:17.265Z,98618.45
2018-05-06T08:19:45.996Z,98611.88
2018-05-06T08:22:14.663Z,98604.34
2018-05-06T08:24:43.755Z,98608.26
2018-05-06T08:27:13.095Z,98607.11
2018-05-06T08:29:42.268Z,98608.88
2018-05-06T08:32:11.547Z,98603.95
2018-05-06T08:34:40.399Z,98600.07
2018-05-06T08:37:09.680Z,98594.61
2018-05-06T08:39:39.018Z,98591.49
2018-05-06T08:42:08.022Z,98584.90
2018-05-06T08:44:37.079Z,98588.31
2018-05-06T08:47:06.504Z,98576.95
2018-05-06T08:49:36.864Z,98571.37
2018-05-06T08:52:05.682Z,98568.37
2018-05-06T08:54:35.009Z,98559.20
2018-05-06T08:57:03.913Z,98555.58
2018-05-06T08:59:33.585Z,98535.05
2018-05-06T09:02:02.828Z,98529.86
2018-05-06T09:04:32.546Z,98532.66
2018-05-06T09:07:01.995Z,98534.54
2018-05-06T09:09:31.467Z,98529.47
2018-05-06T09:12:00.936Z,98524.52
2018-05-06T09:14:30.936Z,98519.25
2018-05-06T09:17:00.152Z,98515.30
2018-05-06T09:19:29.437Z,98508.61
2018-05-06T09:21:59.332Z,98503.94
2018-05-06T09:24:28.768Z,98505.59
2018-05-06T09:26:58.514Z,98502.30
2018-05-06T09:29:27.836Z,98501.88
2018-05-06T09:31:56.357Z,98498.58
2018-05-06T09:34:26.759Z,98493.31
2018-05-06T09:36:55.591Z,98486.29
2018-05-06T09:39:25.473Z,98475.75
2018-05-06T09:41:55.215Z,98482.98
2018-05-06T09:44:24.547Z,98495.81
2018-05-06T09:46:53.724Z,98494.56
2018-05-06T09:49:23.381Z,98493.41
2018-05-06T09:51:53.028Z,98502.59
2018-05-06T09:54:23.205Z,98515.50
2018-05-06T09:56:52.403Z,98541.53
2018-05-06T09:59:21.478Z,98566.00
2018-05-06T10:01:51.023Z,98560.11
2018-05-06T10:04:20.573Z,98548.95
2018-05-06T10:06:49.991Z,98519.04
2018-05-06T10:09:19.203Z,98524.82
2018-05-06T10:11:48.186Z,98522.77
2018-05-06T10:14:18.041Z,98532.15
2018-05-06T10:16:47.825Z,98519.77
2018-05-06T10:19:17.530Z,98528.54
2018-05-06T10:21:46.876Z,98553.02
2018-05-06T10:24:16.385Z,98546.49
2018-05-06T10:26:45.591Z,98537.38
2018-05-06T10:29:14.997Z,98529.85
2018-05-06T10:31:44.426Z,98526.45
2018-05-06T10:34:13.422Z,98521.49
2018-05-06T10:36:42.795Z,98525.92
2018-05-06T10:39:12.137Z,98523.77
2018-05-06T10:41:42.031Z,98525.52
2018-05-06T10:44:12.130Z,98524.07
2018-05-06T10:46:42.440Z,98525.22
2018-05-06T10:49:11.794Z,98529.73
2018-05-06T10:51:41.646Z,98512.00
2018-05-06T10:54:12.569Z,98505.09
2018-05-06T10:56:41.700Z,98502.59
2018-05-06T10:59:10.433Z,98508.06
2018-05-06T11:01:39.869Z,98505.81
2018-05-06T11:04:08.930Z,98503.02
2018-05-06T11:06:38.552Z,98501.98
2018-05-06T11:09:08.092Z,98512.91
2018-05-06T11:11:36.956Z,98506.02
2018-05-06T11:14:06.920Z,98499.94
2018-05-06T11:16:36.306Z,98494.55
2018-05-06T11:19:05.528Z,98494.47
2018-05-06T11:21:34.435Z,98499.81
2018-05-06T11:24:04.101Z,98489.41
2018-05-06T11:26:33.513Z,98493.76
2018-05-06T11:29:02.405Z,98486.82
2018-05-06T11:31:32.264Z,98486.52
2018-05-06T11:34:01.138Z,98486.32
2018-05-06T11:36:30.351Z,98477.96
2018-05-06T11:38:59.699Z,98481.58
2018-05-06T11:41:29.868Z,98480.44
2018-05-06T11:43:59.505Z,98486.41
2018-05-06T11:46:28.733Z,98487.48
2018-05-06T11:48:57.595Z,98489.86
2018-05-06T11:51:26.618Z,98500.91
2018-05-06T11:53:56.162Z,98503.17
2018-05-06T11:56:27.155Z,98504.17
2018-05-06T11:58:56.223Z,98512.13
2018-05-06T12:01:25.589Z,98512.22
2018-05-06T12:03:54.687Z,98508.33
2018-05-06T12:06:23.619Z,98512.22
2018-05-06T12:08:53.496Z,98509.13
2018-05-06T12:11:22.502Z,98509.26
2018-05-06T12:13:52.096Z,98513.70
2018-05-06T12:16:20.781Z,98511.02
2018-05-06T12:18:49.961Z,98517.91
2018-05-06T12:21:19.025Z,98520.92
2018-05-06T12:23:48.219Z,98526.47
2018-05-06T12:26:17.084Z,98525.56
2018-05-06T12:28:46.158Z,98524.72
2018-05-06T12:31:15.263Z,98529.16
2018-05-06T12:33:44.449Z,98532.84
2018-05-06T12:36:13.910Z,98534.69
2018-05-06T12:38:43.514Z,98528.49
2018-05-06T12:41:12.103Z,98533.08
2018-05-06T12:43:41.405Z,98529.16
2018-05-06T12:46:10.221Z,98530.19
2018-05-06T12:48:38.920Z,98536.39
2018-05-06T12:51:08.393Z,98537.91
2018-05-06T12:53:38.160Z,98536.17
2018-05-06T12:56:07.188Z,98539.25
2018-05-06T12:58:37.363Z,98551.66
2018-05-06T13:01:06.560Z,98551.15
2018-05-06T13:03:36.164Z,98547.31
2018-05-06T13:06:06.033Z,98549.89
2018-05-06T13:08:35.179Z,98553.33
2018-05-06T13:11:04.907Z,98560.03
2018-05-06T13:13:34.950Z,98568.59
2018-05-06T13:16:04.370Z,98574.46
2018-05-06T13:18:34.228Z,98577.58
2018-05-06T13:21:03.098Z,98577.58
2018-05-06T13:23:32.420Z,98579.93
2018-05-06T13:26:02.517Z,98585.91
2018-05-06T13:28:31.792Z,98594.17
2018-05-06T13:31:02.147Z,98590.27
2018-05-06T13:33:31.708Z,98592.02
2018-05-06T13:36:01.412Z,98596.98
2018-05-06T13:38:30.242Z,98606.98
2018-05-06T13:40:59.406Z,98605.95
2018-05-06T13:43:28.980Z,98609.27
2018-05-06T13:45:58.408Z,98619.87
2018-05-06T13:48:27.836Z,98616.98
2018-05-06T13:50:57.782Z,98619.03
2018-05-06T13:53:27.532Z,98624.52
2018-05-06T13:55:57.020Z,98619.77
2018-05-06T13:58:26.567Z,98626.44
2018-05-06T14:00:57.250Z,98633.47
2018-05-06T14:03:26.303Z,98636.88
2018-05-06T14:05:55.657Z,98640.78
2018-05-06T14:08:25.332Z,98646.55
2018-05-06T14:10:54.859Z,98647.00
2018-05-06T14:13:23.889Z,98644.56
2018-05-06T14:15:52.941Z,98646.66
2018-05-06T14:18:22.467Z,98651.15
2018-05-06T14:20:51.025Z,98657.75
2018-05-06T14:23:19.738Z,98662.80
2018-05-06T14:25:48.425Z,98666.50
2018-05-06T14:28:17.106Z,98666.72
2018-05-06T14:30:46.564Z,98659.70
2018-05-06T14:33:16.256Z,98662.38
2018-05-06T14:35:45.955Z,98667.56
2018-05-06T14:38:15.069Z,98668.47
2018-05-06T14:40:44.320Z,98665.78
2018-05-06T14:43:13.949Z,98672.38
2018-05-06T14:45:43.532Z,98671.26
2018-05-06T14:48:16.937Z,98679.82
2018-05-06T14:50:46.968Z,98679.16
2018-05-06T14:53:16.669Z,98679.67
2018-05-06T14:55:46.213Z,98684.63
2018-05-06T14:58:15.000Z,98691.50
2018-05-06T15:00:44.720Z,98685.21
2018-05-06T15:03:16.148Z,98694.83
2018-05-06T15:05:45.926Z,98693.96
2018-05-06T15:08:15.450Z,98699.53
2018-05-06T15:10:44.949Z,98707.89
2018-05-06T15:13:14.761Z,98707.15
2018-05-06T15:15:44.270Z,98704.33
2018-05-06T15:18:13.799Z,98706.78
2018-05-06T15:20:42.843Z,98709.38
2018-05-06T15:23:12.215Z,98715.20
2018-05-06T15:25:41.301Z,98721.25
2018-05-06T15:28:10.796Z,98714.19
2018-05-06T15:30:40.718Z,98725.27
2018-05-06T15:33:10.229Z,98727.54
2018-05-06T15:35:39.221Z,98728.56
2018-05-06T15:38:08.946Z,98730.94
2018-05-06T15:40:37.742Z,98735.16
2018-05-06T15:43:06.888Z,98743.40
2018-05-06T15:45:36.643Z,98744.39
2018-05-06T15:48:05.884Z,98753.66
2018-05-06T15:50:34.997Z,98756.14
2018-05-06T15:53:04.086Z,98751.61
2018-05-06T15:55:33.475Z,98745.95
2018-05-06T15:58:02.317Z,98746.88
2018-05-06T16:00:31.386Z,98748.00
2018-05-06T16:03:11.708Z,98749.89
2018-05-06T16:05:41.548Z,98752.83
2018-05-06T16:08:11.310Z,98753.23
2018-05-06T16:10:40.629Z,98749.59
2018-05-06T16:13:10.155Z,98752.30
2018-05-06T16:15:39.931Z,98754.69
2018-05-06T16:18:09.476Z,98754.52
2018-05-06T16:20:38.751Z,98753.17
2018-05-06T16:23:08.293Z,98757.81
2018-05-06T16:25:37.743Z,98761.23
2018-05-06T16:28:07.390Z,98761.39
2018-05-06T16:30:36.636Z,98772.83
2018-05-06T16:33:05.912Z,98772.41
2018-05-06T16:35:35.424Z,98773.98
2018-05-06T16:38:04.368Z,98781.20
2018-05-06T16:40:33.817Z,98779.86
2018-05-06T16:43:03.639Z,98780.02
2018-05-06T16:45:32.854Z,98782.31
2018-05-06T16:48:02.647Z,98789.80
2018-05-06T16:50:32.432Z,98788.27
2018-05-06T16:53:01.980Z,98796.72
2018-05-06T16:55:31.097Z,98792.53
2018-05-06T16:58:00.666Z,98791.19
2018-05-06T17:00:30.296Z,98780.46
2018-05-06T17:03:00.259Z,98780.46
2018-05-06T17:05:29.930Z,98777.78
2018-05-06T17:08:00.612Z,98789.30
2018-05-06T17:10:30.364Z,98794.86
2018-05-06T17:12:59.966Z,98788.73
2018-05-06T17:15:29.805Z,98785.09
2018-05-06T17:17:58.995Z,98783.31
2018-05-06T17:20:29.066Z,98787.55
2018-05-06T17:22:58.620Z,98789.31
2018-05-06T17:25:27.728Z,98789.73
2018-05-06T17:27:57.223Z,98788.90
2018-05-06T17:30:26.474Z,98785.48
2018-05-06T17:32:55.323Z,98778.17
2018-05-06T17:35:24.875Z,98776.41
2018-05-06T17:37:54.249Z,98780.02
2018-05-06T17:40:23.616Z,98782.92
2018-05-06T17:42:53.468Z,98776.73
2018-05-06T17:45:22.733Z,98775.52
2018-05-06T17:47:51.860Z,98773.85
2018-05-06T17:50:21.385Z,98769.22
2018-05-06T17:52:50.933Z,98763.12
2018-05-06T17:55:20.651Z,98762.47
2018-05-06T17:57:50.059Z,98768.98
2018-05-06T18:00:19.548Z,98763.23
2018-05-06T18:02:49.001Z,98753.66
2018-05-06T18:05:18.672Z,98752.95
2018-05-06T18:07:48.332Z,98758.41
2018-05-06T18:10:19.258Z,98755.83
2018-05-06T18:12:48.617Z,98754.00
2018-05-06T18:15:18.051Z,98752.73
2018-05-06T18:17:47.221Z,98745.52
2018-05-06T18:20:16.010Z,98746.53
2018-05-06T18:22:45.421Z,98744.88
2018-05-06T18:25:14.247Z,98749.41
2018-05-06T18:27:43.732Z,98742.41
2018-05-06T18:30:13.668Z,98738.78
2018-05-06T18:32:42.946Z,98735.91
2018-05-06T18:35:12.425Z,98732.33
2018-05-06T18:37:41.724Z,98740.17
2018-05-06T18:40:11.301Z,98738.84
2018-05-06T18:42:40.310Z,98735.81
2018-05-06T18:45:09.575Z,98732.48
2018-05-06T18:47:38.873Z,98731.15
2018-05-06T18:50:08.227Z,98721.34
2018-05-06T18:52:37.118Z,98708.14
2018-05-06T18:55:06.161Z,98697.83
2018-05-06T18:57:35.418Z,98699.68
2018-05-06T19:00:04.781Z,98692.66
2018-05-06T19:02:34.974Z,98699.36
2018-05-06T19:05:04.491Z,98699.94
2018-05-06T19:07:33.997Z,98690.14
2018-05-06T19:10:02.609Z,98689.73
2018-05-06T19:12:31.659Z,98681.31
2018-05-06T19:15:00.335Z,98688.16
2018-05-06T19:17:28.854Z,98681.69
2018-05-06T19:19:57.436Z,98681.27
2018-05-06T19:22:26.044Z,98668.81
2018-05-06T19:24:55.582Z,98668.82
2018-05-06T19:27:24.953Z,98664.27
2018-05-06T19:29:54.416Z,98668.09
2018-05-06T19:32:23.489Z,98682.33
2018-05-06T19:34:53.495Z,98685.20
2018-05-06T19:37:22.320Z,98675.52
2018-05-06T19:39:51.456Z,98672.18
2018-05-06T19:42:21.503Z,98668.92
2018-05-06T19:44:51.498Z,98672.91
2018-05-06T19:47:21.443Z,98675.34
2018-05-06T19:49:50.704Z,98676.14
2018-05-06T19:52:20.364Z,98665.93
2018-05-06T19:54:49.215Z,98666.54
2018-05-06T19:57:18.596Z,98659.84
2018-05-06T19:59:48.417Z,98661.69
2018-05-06T20:02:18.086Z,98661.88
2018-05-06T20:04:47.851Z,98653.13
2018-05-06T20:07:17.121Z,98645.31
2018-05-06T20:09:46.434Z,98640.37
2018-05-06T20:12:15.766Z,98646.69
2018-05-06T20:14:45.535Z,98639.91
2018-05-06T20:17:15.036Z,98635.67
2018-05-06T20:19:44.506Z,98627.34
2018-05-06T20:22:13.736Z,98635.25
2018-05-06T20:24:42.858Z,98628.84
2018-05-06T20:27:11.815Z,98637.81
2018-05-06T20:29:42.075Z,98639.25
2018-05-06T20:32:11.676Z,98650.17
2018-05-06T20:34:40.593Z,98644.05
2018-05-06T20:37:09.881Z,98649.09
2018-05-06T20:39:39.030Z,98651.06
2018-05-06T20:42:08.492Z,98648.35
2018-05-06T20:44:37.577Z,98650.52
2018-05-06T20:47:07.146Z,98653.52
2018-05-06T20:49:35.978Z,98651.35
2018-05-06T20:52:05.520Z,98649.56
2018-05-06T20:54:34.660Z,98644.63
2018-05-06T20:57:03.949Z,98640.61
2018-05-06T20:59:33.789Z,98641.69
2018-05-06T21:02:03.357Z,98633.65
2018-05-06T21:04:32.441Z,98634.83
2018-05-06T21:07:02.115Z,98635.56
2018-05-06T21:09:31.241Z,98644.72
2018-05-06T21:12:00.588Z,98654.64
2018-05-06T21:14:29.619Z,98653.08
2018-05-06T21:16:59.727Z,98655.34
2018-05-06T21:19:28.382Z,98648.33
2018-05-06T21:21:57.194Z,98649.98
2018-05-06T21:24:26.986Z,98640.83
2018-05-06T21:26:56.554Z,98638.85
2018-05-06T21:29:26.277Z,98645.04
2018-05-06T21:31:54.837Z,98656.27
2018-05-06T21:34:23.788Z,98660.06
2018-05-06T21:36:52.603Z,98655.53
2018-05-06T21:39:21.664Z,98651.01
2018-05-06T21:41:50.712Z,98644.91
2018-05-06T21:44:20.353Z,98644.27
2018-05-06T21:46:49.514Z,98643.77
2018-05-06T21:49:18.278Z,98644.05
2018-05-06T21:51:47.445Z,98647.14
2018-05-06T21:54:16.732Z,98644.56
2018-05-06T21:56:45.815Z,98640.28
2018-05-06T21:59:15.098Z,98635.88
2018-05-06T22:01:44.355Z,98635.70
2018-05-06T22:04:13.654Z,98634.67
2018-05-06T22:06:43.199Z,98635.79
2018-05-06T22:09:12.564Z,98624.15
2018-05-06T22:11:41.481Z,98614.99
2018-05-06T22:14:10.835Z,98606.92
2018-05-06T22:16:39.757Z,98600.03
2018-05-06T22:19:08.874Z,98595.38
2018-05-06T22:21:38.490Z,98597.04
2018-05-06T22:24:07.794Z,98597.11
2018-05-06T22:26:36.463Z,98599.37
2018-05-06T22:29:06.202Z,98585.78
2018-05-06T22:31:35.368Z,98587.44
2018-05-06T22:34:05.407Z,98587.22
2018-05-06T22:36:34.790Z,98593.38
2018-05-06T22:39:03.873Z,98604.56
2018-05-06T22:41:33.485Z,98617.28
2018-05-06T22:44:02.385Z,98606.37
2018-05-06T22:46:32.207Z,98599.17
2018-05-06T22:49:02.932Z,98593.81
2018-05-06T22:51:32.347Z,98596.69
2018-05-06T22:54:01.214Z,98599.08
2018-05-06T22:56:30.491Z,98607.21
2018-05-06T22:58:59.429Z,98611.03
2018-05-06T23:01:28.963Z,98614.55
2018-05-06T23:03:58.581Z,98610.53
2018-05-06T23:06:27.599Z,98617.89
2018-05-06T23:08:56.644Z,98619.45
2018-05-06T23:11:26.189Z,98614.29
2018-05-06T23:13:55.753Z,98613.11
2018-05-06T23:16:25.041Z,98614.73
2018-05-06T23:18:54.914Z,98623.15
2018-05-06T23:21:25.162Z,98635.42
2018-05-06T23:23:54.481Z,98645.59
2018-05-06T23:26:23.946Z,98647.02
2018-05-06T23:28:52.817Z,98634.55
2018-05-06T23:31:22.063Z,98644.86
2018-05-06T23:33:51.635Z,98650.21
2018-05-06T23:36:21.358Z,98654.19
2018-05-06T23:38:51.070Z,98648.64
2018-05-06T23:41:20.602Z,98649.47
2018-05-06T23:43:50.148Z,98649.38
2018-05-06T23:46:19.679Z,98652.89
2018-05-06T23:48:49.365Z,98658.75
2018-05-06T23:51:19.242Z,98666.87
2018-05-06T23:53:48.167Z,98664.84
2018-05-06T23:56:17.066Z,98656.64
2018-05-06T23:58:46.918Z,98660.50
